Darstellungsparameter: Aktuell verwendete Einstellungen:
Skalierung der Graphiken ... ?
xyx+y,   Skalierungsfaktor:      Skalierung: Modus: x, Faktor: 1
Darstellungszeitraum ... ?
Vom - - bis: - -   Zeitraum: 08.08.2022 - 08.08.2022
Min/Max/Avg-Anzeige ... ?
Zeige MMA aktuell
Zeige MMA Monat
Zeige MMA alles
Zeige --A aktuell
Zeige --A Monat
Zeige --A alles
Keine MMA-Anzeige
MMA:
Keine MMA-Graphiken
MMA-Basis: 08.08.2022 - 08.08.2022
Quicknavigation für Darstellung... ?
Tage:      1T, 2T, 3T, 5T -1T -2T -3T -5T +1T +2T +3T +5T
Wochen: 1W, 2W, 3W -1W -2W -3W +1W +2W +3W
Monate: 1M, 3M, 6M -1M -3M -6M +1M +3M +6M
Jahre:    1J, 3J, 5J, 10J -1J -3J -5J -10J +1J +3J +5J +10J
Nutze für die Darstellung ... ?
Originaldaten oder Mittelwerte auf ...
Stundenbasis Tagesbasis Wochenbasis
Monatsbasis Jahresbasis      Datenbasis: Original-Daten
Darstellen als:
Statistik (Auto) Statistik J:M      Darstellung:

Der gewünschte Datumsbereich war nicht gültig/verfügbar und wurde korrigiert....
Das angegebene Enddatum (21.05.2023 23:59:59) liegt in der Zukunft.
Das angegebene Startdatum (21.05.2023 00:00:00) liegt in der Zukunft.


Zur Graphik,    zurück zur Übersicht aller Sensoren.
 
Tabellarische Datenbersicht: ?
 
Sensor: Nr:Datum:Temp:Abs-Feuchte:Windchill:Wind:
Aussen-T/F 1 08-08-2022 02:00:00 14.2 C 9.52 g/m*3 14.2 C 0 km/h
2 08-08-2022 02:05:00 14.1 C 9.34 g/m*3 14.1 C 0 km/h
3 08-08-2022 02:10:00 14 C 9.29 g/m*3 14 C 0 km/h
4 08-08-2022 02:15:00 13.9 C 9.35 g/m*3 13.9 C 0 km/h
5 08-08-2022 02:20:00 13.8 C 9.29 g/m*3 13.8 C 0 km/h
6 08-08-2022 02:25:00 13.7 C 9.24 g/m*3 13.7 C 0 km/h
7 08-08-2022 02:30:00 13.6 C 9.3 g/m*3 13.6 C 0 km/h
8 08-08-2022 02:35:00 13.6 C 9.3 g/m*3 13.6 C 0 km/h
9 08-08-2022 02:40:00 13.6 C 9.42 g/m*3 13.6 C 0 km/h
10 08-08-2022 02:45:00 13.5 C 9.24 g/m*3 13.5 C 0 km/h
11 08-08-2022 02:50:00 13.4 C 9.18 g/m*3 13.4 C 0 km/h
12 08-08-2022 02:55:00 13.3 C 9.13 g/m*3 13.3 C 0 km/h
13 08-08-2022 03:00:00 13.3 C 9.13 g/m*3 13.3 C 0 km/h
14 08-08-2022 03:05:00 13.3 C 9.13 g/m*3 13.3 C 0 km/h
15 08-08-2022 03:10:00 13.3 C 9.13 g/m*3 13.3 C 0 km/h
16 08-08-2022 03:15:00 13.2 C 9.19 g/m*3 13.2 C 0 km/h
17 08-08-2022 03:20:00 13.2 C 9.19 g/m*3 13.2 C 0 km/h
18 08-08-2022 03:25:00 13.2 C 9.19 g/m*3 13.2 C 0 km/h
19 08-08-2022 03:30:00 13.1 C 9.13 g/m*3 13.1 C 0 km/h
20 08-08-2022 03:35:00 13 C 9.07 g/m*3 13 C 0 km/h
21 08-08-2022 03:40:00 12.9 C 9.02 g/m*3 12.9 C 0 km/h
22 08-08-2022 03:45:00 12.9 C 9.13 g/m*3 12.9 C 0 km/h
23 08-08-2022 03:50:00 12.8 C 9.07 g/m*3 12.8 C 0 km/h
24 08-08-2022 03:55:00 12.8 C 9.07 g/m*3 12.8 C 0 km/h
25 08-08-2022 04:00:00 12.7 C 9.13 g/m*3 12.7 C 0 km/h
Sensor: Nr:Datum:Temp:Abs-Feuchte:Windchill:Wind:
Aussen-T/F 26 08-08-2022 04:05:00 12.6 C 9.07 g/m*3 12.6 C 0 km/h
27 08-08-2022 04:10:00 12.6 C 9.07 g/m*3 12.6 C 0 km/h
28 08-08-2022 04:15:00 12.6 C 9.07 g/m*3 12.6 C 0 km/h
29 08-08-2022 04:20:00 12.6 C 9.07 g/m*3 12.6 C 0 km/h
30 08-08-2022 04:25:00 12.5 C 9.02 g/m*3 12.5 C 0 km/h
31 08-08-2022 04:30:00 12.5 C 9.13 g/m*3 12.5 C 0 km/h
32 08-08-2022 04:35:00 12.4 C 9.07 g/m*3 12.4 C 0 km/h
33 08-08-2022 04:40:00 12.4 C 9.07 g/m*3 12.4 C 0 km/h
34 08-08-2022 04:45:00 12.3 C 9.01 g/m*3 12.3 C 0 km/h
35 08-08-2022 04:50:00 12.3 C 9.12 g/m*3 12.3 C 0 km/h
36 08-08-2022 04:55:00 12.2 C 9.06 g/m*3 12.2 C 0 km/h
37 08-08-2022 05:00:00 12.2 C 9.06 g/m*3 12.2 C 0 km/h
38 08-08-2022 05:05:00 12.1 C 9.01 g/m*3 12.1 C 0 km/h
39 08-08-2022 05:10:00 12 C 8.95 g/m*3 12 C 0 km/h
40 08-08-2022 05:15:00 11.9 C 9 g/m*3 11.9 C 0 km/h
41 08-08-2022 05:20:00 11.8 C 8.95 g/m*3 11.8 C 0 km/h
42 08-08-2022 05:25:00 11.8 C 8.95 g/m*3 11.8 C 0 km/h
43 08-08-2022 05:30:00 11.8 C 8.95 g/m*3 11.8 C 0 km/h
44 08-08-2022 05:35:00 11.8 C 8.95 g/m*3 11.8 C 0 km/h
45 08-08-2022 05:40:00 11.7 C 8.89 g/m*3 11.7 C 0 km/h
46 08-08-2022 05:45:00 11.7 C 8.99 g/m*3 11.7 C 0 km/h
47 08-08-2022 05:50:00 11.7 C 8.99 g/m*3 11.7 C 0 km/h
48 08-08-2022 05:55:00 11.6 C 8.94 g/m*3 11.6 C 0 km/h
49 08-08-2022 06:00:00 11.6 C 8.94 g/m*3 11.6 C 0 km/h
50 08-08-2022 06:05:00 11.6 C 8.94 g/m*3 11.6 C 0 km/h
Sensor: Nr:Datum:Temp:Abs-Feuchte:Windchill:Wind:
Aussen-T/F 51 08-08-2022 06:10:00 11.7 C 8.99 g/m*3 11.7 C 0 km/h
52 08-08-2022 06:15:00 11.7 C 8.99 g/m*3 11.7 C 0 km/h
53 08-08-2022 06:20:00 11.7 C 9.1 g/m*3 11.7 C 0 km/h
54 08-08-2022 06:25:00 11.7 C 9.1 g/m*3 11.7 C 0 km/h
55 08-08-2022 06:30:00 11.7 C 9.1 g/m*3 11.7 C 0 km/h
56 08-08-2022 06:35:00 11.7 C 9.1 g/m*3 11.7 C 0 km/h
57 08-08-2022 06:40:00 11.7 C 9.1 g/m*3 11.7 C 0 km/h
58 08-08-2022 06:45:00 11.8 C 9.16 g/m*3 11.8 C 6.4 km/h
59 08-08-2022 06:50:00 11.8 C 9.16 g/m*3 11.8 C 1.6 km/h
60 08-08-2022 06:55:00 12 C 9.27 g/m*3 12 C 4.8 km/h
61 08-08-2022 07:00:00 12.1 C 9.33 g/m*3 12.1 C 0 km/h
62 08-08-2022 07:05:00 12.2 C 9.39 g/m*3 12.2 C 0 km/h
63 08-08-2022 07:10:00 12.3 C 9.45 g/m*3 12.3 C 0 km/h
64 08-08-2022 07:15:00 12.3 C 9.45 g/m*3 12.3 C 0 km/h
65 08-08-2022 07:20:00 12.3 C 9.45 g/m*3 12.3 C 0 km/h
66 08-08-2022 07:25:00 12.3 C 9.45 g/m*3 12.3 C 0 km/h
67 08-08-2022 07:30:00 12.3 C 9.45 g/m*3 12.3 C 0 km/h
68 08-08-2022 07:35:00 12.3 C 9.45 g/m*3 12.3 C 0 km/h
69 08-08-2022 07:40:00 12.3 C 9.45 g/m*3 12.3 C 0 km/h
70 08-08-2022 07:45:00 12.3 C 9.45 g/m*3 12.3 C 0 km/h
71 08-08-2022 07:50:00 12.3 C 9.45 g/m*3 12.3 C 0 km/h
72 08-08-2022 07:55:00 12.3 C 9.56 g/m*3 12.3 C 3.2 km/h
73 08-08-2022 08:00:00 12.4 C 9.62 g/m*3 12.4 C 1.6 km/h
74 08-08-2022 08:05:00 12.4 C 9.62 g/m*3 12.4 C 0 km/h
75 08-08-2022 08:10:00 12.6 C 9.74 g/m*3 12.6 C 0 km/h
Sensor: Nr:Datum:Temp:Abs-Feuchte:Windchill:Wind:
Aussen-T/F 76 08-08-2022 08:15:00 12.6 C 9.74 g/m*3 12.6 C 1.6 km/h
77 08-08-2022 08:20:00 12.7 C 9.8 g/m*3 12.7 C 3.2 km/h
78 08-08-2022 08:25:00 12.8 C 9.86 g/m*3 12.8 C 1.6 km/h
79 08-08-2022 08:30:00 12.9 C 10.03 g/m*3 12.9 C 0 km/h
80 08-08-2022 08:35:00 12.9 C 10.03 g/m*3 12.9 C 0 km/h
81 08-08-2022 08:40:00 13 C 10.09 g/m*3 13 C 0 km/h
82 08-08-2022 08:45:00 13.1 C 10.16 g/m*3 13.1 C 0 km/h
83 08-08-2022 08:50:00 13.2 C 10.22 g/m*3 13.2 C 0 km/h
84 08-08-2022 08:55:00 13.3 C 10.28 g/m*3 13.3 C 0 km/h
85 08-08-2022 09:00:00 13.4 C 10.35 g/m*3 13.4 C 0 km/h
86 08-08-2022 09:05:00 13.5 C 10.41 g/m*3 13.5 C 1.6 km/h
87 08-08-2022 09:10:00 13.7 C 10.54 g/m*3 13.7 C 0 km/h
88 08-08-2022 09:15:00 13.8 C 10.6 g/m*3 13.8 C 0 km/h
89 08-08-2022 09:20:00 13.9 C 10.67 g/m*3 13.9 C 0 km/h
90 08-08-2022 09:25:00 14.1 C 10.8 g/m*3 14.1 C 0 km/h
91 08-08-2022 09:30:00 14.2 C 10.75 g/m*3 14.2 C 0 km/h
92 08-08-2022 09:35:00 14.3 C 10.81 g/m*3 14.3 C 0 km/h
93 08-08-2022 09:40:00 14.5 C 10.7 g/m*3 14.5 C 1.6 km/h
94 08-08-2022 09:45:00 14.8 C 10.89 g/m*3 14.8 C 1.6 km/h
95 08-08-2022 09:50:00 15.1 C 10.84 g/m*3 15.1 C 1.6 km/h
96 08-08-2022 09:55:00 15.4 C 10.9 g/m*3 15.4 C 4.8 km/h
97 08-08-2022 10:00:00 15.8 C 11.17 g/m*3 15.8 C 1.6 km/h
98 08-08-2022 10:05:00 15.9 C 10.83 g/m*3 15.9 C 1.6 km/h
99 08-08-2022 10:10:00 16.2 C 11.17 g/m*3 16.2 C 0 km/h
100 08-08-2022 10:15:00 16.4 C 10.89 g/m*3 16.4 C 0 km/h
Sensor: Nr:Datum:Temp:Abs-Feuchte:Windchill:Wind:
Aussen-T/F 101 08-08-2022 10:20:00 16.7 C 11.23 g/m*3 16.7 C 0 km/h
102 08-08-2022 10:25:00 16.8 C 10.87 g/m*3 16.8 C 1.6 km/h
103 08-08-2022 10:30:00 17 C 11 g/m*3 17 C 0 km/h
104 08-08-2022 10:35:00 17.2 C 11.13 g/m*3 17.2 C 0 km/h
105 08-08-2022 10:40:00 17.4 C 10.97 g/m*3 17.4 C 3.2 km/h
106 08-08-2022 10:45:00 17.7 C 10.86 g/m*3 17.7 C 1.6 km/h
107 08-08-2022 10:50:00 18.1 C 10.82 g/m*3 18.1 C 1.6 km/h
108 08-08-2022 10:55:00 18.3 C 10.79 g/m*3 18.3 C 0 km/h
109 08-08-2022 11:00:00 18.8 C 10.95 g/m*3 18.8 C 1.6 km/h
110 08-08-2022 11:05:00 19.2 C 10.72 g/m*3 19.2 C 0 km/h
111 08-08-2022 11:10:00 19.6 C 10.97 g/m*3 19.6 C 0 km/h
112 08-08-2022 11:15:00 20.1 C 10.78 g/m*3 20.1 C 4.8 km/h
113 08-08-2022 11:20:00 20.6 C 10.74 g/m*3 20.6 C 1.6 km/h
114 08-08-2022 11:25:00 20.9 C 10.93 g/m*3 20.9 C 1.6 km/h
115 08-08-2022 11:30:00 21.3 C 10.81 g/m*3 21.3 C 1.6 km/h
116 08-08-2022 11:35:00 21.7 C 10.49 g/m*3 21.7 C 1.6 km/h
117 08-08-2022 11:40:00 21.9 C 11 g/m*3 21.9 C 1.6 km/h
118 08-08-2022 11:45:00 22.3 C 10.47 g/m*3 22.3 C 4.8 km/h
119 08-08-2022 11:50:00 22.6 C 10.25 g/m*3 22.6 C 1.6 km/h
120 08-08-2022 11:55:00 22.9 C 10.22 g/m*3 22.9 C 3.2 km/h
121 08-08-2022 12:00:00 23.2 C 10.19 g/m*3 23.2 C 4.8 km/h
122 08-08-2022 12:05:00 23.5 C 9.94 g/m*3 23.5 C 6.4 km/h
123 08-08-2022 12:10:00 23.9 C 10.17 g/m*3 23.9 C 6.4 km/h
124 08-08-2022 12:15:00 24.3 C 9.96 g/m*3 24.3 C 9.7 km/h
125 08-08-2022 12:20:00 24.7 C 9.96 g/m*3 24.7 C 6.4 km/h
Sensor: Nr:Datum:Temp:Abs-Feuchte:Windchill:Wind:
Aussen-T/F 126 08-08-2022 12:25:00 25 C 9.9 g/m*3 25 C 8.1 km/h
127 08-08-2022 12:30:00 25.3 C 10.07 g/m*3 25.3 C 4.8 km/h
128 08-08-2022 12:35:00 25.7 C 10.06 g/m*3 25.7 C 4.8 km/h
129 08-08-2022 12:40:00 25.9 C 9.68 g/m*3 25.9 C 6.4 km/h
130 08-08-2022 12:45:00 26.1 C 9.79 g/m*3 26.1 C 11.3 km/h
131 08-08-2022 12:50:00 26.2 C 9.6 g/m*3 26.2 C 11.3 km/h
132 08-08-2022 12:55:00 26.2 C 9.85 g/m*3 26.2 C 8.1 km/h
133 08-08-2022 13:00:00 26.3 C 9.65 g/m*3 26.3 C 11.3 km/h
134 08-08-2022 13:05:00 26.4 C 9.21 g/m*3 26.4 C 11.3 km/h
135 08-08-2022 13:10:00 26.5 C 9.51 g/m*3 26.5 C 9.7 km/h
136 08-08-2022 13:15:00 26.7 C 9.62 g/m*3 26.7 C 6.4 km/h
137 08-08-2022 13:20:00 26.9 C 9.98 g/m*3 26.9 C 12.9 km/h
138 08-08-2022 13:25:00 27.3 C 9.68 g/m*3 27.3 C 14.5 km/h
139 08-08-2022 13:30:00 27.6 C 9.84 g/m*3 27.6 C 8.1 km/h
140 08-08-2022 13:35:00 27.6 C 9.58 g/m*3 27.6 C 8.1 km/h
141 08-08-2022 13:40:00 27.4 C 9.21 g/m*3 27.4 C 9.7 km/h
142 08-08-2022 13:45:00 27.4 C 9.47 g/m*3 27.4 C 11.3 km/h
143 08-08-2022 13:50:00 27.7 C 9.36 g/m*3 27.7 C 12.9 km/h
144 08-08-2022 13:55:00 27.8 C 9.41 g/m*3 27.8 C 6.4 km/h
145 08-08-2022 14:00:00 28.1 C 9.57 g/m*3 28.1 C 4.8 km/h
146 08-08-2022 14:05:00 28.4 C 9.45 g/m*3 28.4 C 8.1 km/h
147 08-08-2022 14:10:00 28.3 C 9.12 g/m*3 28.3 C 17.7 km/h
148 08-08-2022 14:15:00 28.3 C 9.12 g/m*3 28.3 C 6.4 km/h
149 08-08-2022 14:20:00 28.3 C 9.12 g/m*3 28.3 C 8.1 km/h
150 08-08-2022 14:25:00 28.5 C 9.22 g/m*3 28.5 C 4.8 km/h
Sensor: Nr:Datum:Temp:Abs-Feuchte:Windchill:Wind:
Aussen-T/F 151 08-08-2022 14:30:00 28.8 C 9.09 g/m*3 28.8 C 8.1 km/h
152 08-08-2022 14:35:00 28.8 C 9.09 g/m*3 28.8 C 14.5 km/h
153 08-08-2022 14:40:00 28.9 C 8.86 g/m*3 28.9 C 9.7 km/h
154 08-08-2022 14:45:00 28.9 C 8.86 g/m*3 28.9 C 12.9 km/h
155 08-08-2022 14:50:00 28.9 C 8.86 g/m*3 28.9 C 11.3 km/h
156 08-08-2022 14:55:00 29.1 C 8.95 g/m*3 29.1 C 12.9 km/h
157 08-08-2022 15:00:00 29.3 C 8.76 g/m*3 29.3 C 6.4 km/h
158 08-08-2022 15:05:00 29.4 C 8.81 g/m*3 29.4 C 12.9 km/h

Legende:
   Min
   Max


Maximal/Minimal-Werte vom 08.08.2022 - 08.08.2022

Sensor Min Max Avg
Temp
(Aussen-T/F)
11.6 °C
08-08-2022  05:55:00
29.4 °C
08-08-2022  15:05:00
17.15 °C
Abs-Feuchte
(Aussen-T/F)
8.76 g/m*3
08-08-2022  15:00:00
11.23 g/m*3
08-08-2022  10:20:00
9.61 g/m*3
Windchill
(Aussen-T/F)
11.6 C
08-08-2022  05:55:00
29.4 C
08-08-2022  15:05:00
17.04 C

Die Daten stammen von einer Davis Vantage Pro 2 Wetter-Station und werden unter Linux mit der Software wview2wettercgi und aufbereitet. Alle Angaben erfolgen ohne Gewähr für ihre Vollständigkeit oder Richtigkeit.
Kontakt: Rainer Krienke krienke@uni-koblenz.de . Meine Webseiten an der Uni Koblenz oder privat.
Version: $Revision: 0.78 $